sensor_id;sensor_type;location;lat;lon;timestamp;pressure;altitude;pressure_sealevel;temperature;humidity
57948;BME280;43754;56.992;24.292;2023-04-20T00:01:31;102789.09;;;7.26;57.32
57948;BME280;43754;56.992;24.292;2023-04-20T00:04:04;102793.56;;;7.25;57.49
57948;BME280;43754;56.992;24.292;2023-04-20T00:06:37;102786.53;;;7.24;58.10
57948;BME280;43754;56.992;24.292;2023-04-20T00:09:09;102792.81;;;7.23;57.61
57948;BME280;43754;56.992;24.292;2023-04-20T00:11:41;102792.94;;;7.22;57.91
57948;BME280;43754;56.992;24.292;2023-04-20T00:14:13;102796.66;;;7.19;57.80
57948;BME280;43754;56.992;24.292;2023-04-20T00:16:47;102791.78;;;7.13;58.68
57948;BME280;43754;56.992;24.292;2023-04-20T00:19:21;102795.28;;;7.14;58.90
57948;BME280;43754;56.992;24.292;2023-04-20T00:21:53;102790.16;;;7.11;59.02
57948;BME280;43754;56.992;24.292;2023-04-20T00:24:25;102793.91;;;7.08;59.14
57948;BME280;43754;56.992;24.292;2023-04-20T00:26:57;102796.56;;;7.08;59.59
57948;BME280;43754;56.992;24.292;2023-04-20T00:29:29;102797.63;;;7.06;59.05
57948;BME280;43754;56.992;24.292;2023-04-20T00:32:01;102786.31;;;7.02;59.71
57948;BME280;43754;56.992;24.292;2023-04-20T00:34:35;102780.34;;;6.99;59.79
57948;BME280;43754;56.992;24.292;2023-04-20T00:37:07;102785.91;;;6.96;59.93
57948;BME280;43754;56.992;24.292;2023-04-20T00:39:39;102787.72;;;6.95;60.28
57948;BME280;43754;56.992;24.292;2023-04-20T00:42:11;102790.47;;;6.93;59.98
57948;BME280;43754;56.992;24.292;2023-04-20T00:44:43;102791.47;;;6.92;60.52
57948;BME280;43754;56.992;24.292;2023-04-20T00:47:16;102788.13;;;6.89;60.47
57948;BME280;43754;56.992;24.292;2023-04-20T00:49:50;102782.06;;;6.87;60.88
57948;BME280;43754;56.992;24.292;2023-04-20T00:52:22;102786.63;;;6.85;61.05
57948;BME280;43754;56.992;24.292;2023-04-20T00:54:54;102791.44;;;6.80;61.48
57948;BME280;43754;56.992;24.292;2023-04-20T00:57:26;102791.75;;;6.75;61.64
57948;BME280;43754;56.992;24.292;2023-04-20T00:59:59;102791.63;;;6.77;61.69
57948;BME280;43754;56.992;24.292;2023-04-20T01:02:32;102787.47;;;6.73;61.75
57948;BME280;43754;56.992;24.292;2023-04-20T01:05:06;102791.31;;;6.69;62.04
57948;BME280;43754;56.992;24.292;2023-04-20T01:07:39;102788.00;;;6.65;62.18
57948;BME280;43754;56.992;24.292;2023-04-20T01:10:11;102783.75;;;6.63;62.19
57948;BME280;43754;56.992;24.292;2023-04-20T01:12:43;102784.69;;;6.62;61.71
57948;BME280;43754;56.992;24.292;2023-04-20T01:15:15;102784.69;;;6.62;62.62
57948;BME280;43754;56.992;24.292;2023-04-20T01:17:47;102785.97;;;6.56;62.69
57948;BME280;43754;56.992;24.292;2023-04-20T01:20:21;102787.97;;;6.53;62.62
57948;BME280;43754;56.992;24.292;2023-04-20T01:22:55;102789.16;;;6.48;63.46
57948;BME280;43754;56.992;24.292;2023-04-20T01:25:27;102792.03;;;6.45;63.50
57948;BME280;43754;56.992;24.292;2023-04-20T01:27:59;102795.84;;;6.41;63.13
57948;BME280;43754;56.992;24.292;2023-04-20T01:30:33;102801.41;;;6.38;63.48
57948;BME280;43754;56.992;24.292;2023-04-20T01:33:07;102797.88;;;6.38;63.34
57948;BME280;43754;56.992;24.292;2023-04-20T01:35:41;102790.94;;;6.35;63.32
57948;BME280;43754;56.992;24.292;2023-04-20T01:38:18;102791.06;;;6.34;63.97
57948;BME280;43754;56.992;24.292;2023-04-20T01:40:50;102794.75;;;6.31;63.73
57948;BME280;43754;56.992;24.292;2023-04-20T01:43:24;102784.31;;;6.28;64.34
57948;BME280;43754;56.992;24.292;2023-04-20T01:45:56;102786.22;;;6.26;64.06
57948;BME280;43754;56.992;24.292;2023-04-20T01:48:28;102789.84;;;6.25;64.27
57948;BME280;43754;56.992;24.292;2023-04-20T01:51:00;102789.28;;;6.20;64.21
57948;BME280;43754;56.992;24.292;2023-04-20T01:53:33;102783.97;;;6.20;64.25
57948;BME280;43754;56.992;24.292;2023-04-20T01:56:06;102783.97;;;6.20;64.26
57948;BME280;43754;56.992;24.292;2023-04-20T01:58:38;102784.06;;;6.19;64.63
57948;BME280;43754;56.992;24.292;2023-04-20T02:01:10;102786.06;;;6.15;65.23
57948;BME280;43754;56.992;24.292;2023-04-20T02:03:42;102782.97;;;6.09;65.14
57948;BME280;43754;56.992;24.292;2023-04-20T02:06:14;102792.97;;;6.05;65.49
57948;BME280;43754;56.992;24.292;2023-04-20T02:08:48;102792.22;;;6.03;65.61
57948;BME280;43754;56.992;24.292;2023-04-20T02:11:20;102786.31;;;5.98;65.52
57948;BME280;43754;56.992;24.292;2023-04-20T02:13:53;102783.66;;;5.98;65.80
57948;BME280;43754;56.992;24.292;2023-04-20T02:16:25;102785.78;;;5.93;65.90
57948;BME280;43754;56.992;24.292;2023-04-20T02:19:00;102785.97;;;5.90;66.55
57948;BME280;43754;56.992;24.292;2023-04-20T02:21:32;102787.22;;;5.84;67.00
57948;BME280;43754;56.992;24.292;2023-04-20T02:24:06;102784.06;;;5.78;66.89
57948;BME280;43754;56.992;24.292;2023-04-20T02:26:38;102786.09;;;5.74;66.85
57948;BME280;43754;56.992;24.292;2023-04-20T02:29:11;102789.69;;;5.73;66.69
57948;BME280;43754;56.992;24.292;2023-04-20T02:31:43;102788.09;;;5.71;67.23
57948;BME280;43754;56.992;24.292;2023-04-20T02:34:19;102783.72;;;5.70;67.32
57948;BME280;43754;56.992;24.292;2023-04-20T02:36:51;102777.53;;;5.69;67.12
57948;BME280;43754;56.992;24.292;2023-04-20T02:39:24;102788.47;;;5.65;67.89
57948;BME280;43754;56.992;24.292;2023-04-20T02:41:58;102782.59;;;5.60;67.94
57948;BME280;43754;56.992;24.292;2023-04-20T02:44:30;102781.94;;;5.56;68.17
57948;BME280;43754;56.992;24.292;2023-04-20T02:47:02;102777.88;;;5.50;68.74
57948;BME280;43754;56.992;24.292;2023-04-20T02:49:34;102779.78;;;5.48;68.93
57948;BME280;43754;56.992;24.292;2023-04-20T02:52:06;102780.81;;;5.46;68.81
57948;BME280;43754;56.992;24.292;2023-04-20T02:54:39;102779.19;;;5.43;68.80
57948;BME280;43754;56.992;24.292;2023-04-20T02:57:12;102781.84;;;5.43;68.60
57948;BME280;43754;56.992;24.292;2023-04-20T02:59:45;102781.84;;;5.43;69.22
57948;BME280;43754;56.992;24.292;2023-04-20T03:02:21;102779.50;;;5.39;69.82
57948;BME280;43754;56.992;24.292;2023-04-20T03:04:54;102782.47;;;5.34;69.59
57948;BME280;43754;56.992;24.292;2023-04-20T03:07:26;102788.16;;;5.28;70.28
57948;BME280;43754;56.992;24.292;2023-04-20T03:10:01;102788.34;;;5.25;70.62
57948;BME280;43754;56.992;24.292;2023-04-20T03:12:44;102795.56;;;5.23;69.97
57948;BME280;43754;56.992;24.292;2023-04-20T03:15:16;102787.56;;;5.23;70.84
57948;BME280;43754;56.992;24.292;2023-04-20T03:18:21;102794.81;;;5.21;70.49
57948;BME280;43754;56.992;24.292;2023-04-20T03:20:53;102790.34;;;5.22;70.37
57948;BME280;43754;56.992;24.292;2023-04-20T03:23:25;102792.16;;;5.21;70.29
57948;BME280;43754;56.992;24.292;2023-04-20T03:25:59;102787.13;;;5.17;70.92
57948;BME280;43754;56.992;24.292;2023-04-20T03:28:59;102793.47;;;5.14;70.75
57948;BME280;43754;56.992;24.292;2023-04-20T03:31:33;102794.03;;;5.19;70.53
57948;BME280;43754;56.992;24.292;2023-04-20T03:34:05;102796.41;;;5.24;70.12
57948;BME280;43754;56.992;24.292;2023-04-20T03:36:37;102790.03;;;5.26;70.32
57948;BME280;43754;56.992;24.292;2023-04-20T03:39:09;102796.13;;;5.28;69.94
57948;BME280;43754;56.992;24.292;2023-04-20T03:41:43;102803.31;;;5.26;70.52
57948;BME280;43754;56.992;24.292;2023-04-20T03:44:15;102803.16;;;5.29;70.16
57948;BME280;43754;56.992;24.292;2023-04-20T03:46:47;102805.69;;;5.31;70.61
57948;BME280;43754;56.992;24.292;2023-04-20T03:49:23;102803.63;;;5.36;70.31
57948;BME280;43754;56.992;24.292;2023-04-20T03:51:55;102795.66;;;5.36;69.65
57948;BME280;43754;56.992;24.292;2023-04-20T03:54:28;102797.06;;;5.41;70.51
57948;BME280;43754;56.992;24.292;2023-04-20T03:57:01;102795.16;;;5.43;69.06
57948;BME280;43754;56.992;24.292;2023-04-20T03:59:33;102800.97;;;5.50;69.94
57948;BME280;43754;56.992;24.292;2023-04-20T04:02:07;102798.97;;;5.53;69.50
57948;BME280;43754;56.992;24.292;2023-04-20T04:04:41;102798.75;;;5.56;69.30
57948;BME280;43754;56.992;24.292;2023-04-20T04:07:14;102801.03;;;5.63;68.97
57948;BME280;43754;56.992;24.292;2023-04-20T04:09:47;102799.69;;;5.70;69.58
57948;BME280;43754;56.992;24.292;2023-04-20T04:12:21;102798.53;;;5.74;69.24
57948;BME280;43754;56.992;24.292;2023-04-20T04:14:53;102795.78;;;5.75;69.07
57948;BME280;43754;56.992;24.292;2023-04-20T04:17:28;102796.44;;;5.79;68.15
57948;BME280;43754;56.992;24.292;2023-04-20T04:20:01;102799.50;;;5.87;68.46
57948;BME280;43754;56.992;24.292;2023-04-20T04:22:34;102791.31;;;5.90;67.84
57948;BME280;43754;56.992;24.292;2023-04-20T04:25:32;102795.59;;;5.92;67.64
57948;BME280;43754;56.992;24.292;2023-04-20T04:28:06;102792.41;;;6.00;67.59
57948;BME280;43754;56.992;24.292;2023-04-20T04:30:41;102800.84;;;6.07;67.93
57948;BME280;43754;56.992;24.292;2023-04-20T04:33:14;102802.13;;;6.14;67.65
57948;BME280;43754;56.992;24.292;2023-04-20T04:35:49;102806.13;;;6.21;66.87
57948;BME280;43754;56.992;24.292;2023-04-20T04:38:21;102798.91;;;6.35;65.93
57948;BME280;43754;56.992;24.292;2023-04-20T04:40:54;102800.13;;;6.57;65.19
57948;BME280;43754;56.992;24.292;2023-04-20T04:43:29;102800.16;;;6.69;64.76
57948;BME280;43754;56.992;24.292;2023-04-20T04:46:10;102806.06;;;7.00;64.22
57948;BME280;43754;56.992;24.292;2023-04-20T04:48:42;102807.31;;;7.32;63.42
57948;BME280;43754;56.992;24.292;2023-04-20T04:51:14;102802.34;;;7.76;62.05
57948;BME280;43754;56.992;24.292;2023-04-20T04:53:46;102812.31;;;8.22;60.40
57948;BME280;43754;56.992;24.292;2023-04-20T04:56:20;102809.63;;;8.81;58.20
57948;BME280;43754;56.992;24.292;2023-04-20T04:58:53;102809.78;;;9.01;57.91
57948;BME280;43754;56.992;24.292;2023-04-20T05:01:25;102804.44;;;9.46;57.42
57948;BME280;43754;56.992;24.292;2023-04-20T05:03:58;102807.09;;;9.79;55.24
57948;BME280;43754;56.992;24.292;2023-04-20T05:06:30;102800.03;;;9.78;53.82
57948;BME280;43754;56.992;24.292;2023-04-20T05:09:03;102807.00;;;10.12;53.36
57948;BME280;43754;56.992;24.292;2023-04-20T05:11:35;102807.94;;;10.34;52.64
57948;BME280;43754;56.992;24.292;2023-04-20T05:14:08;102800.91;;;10.53;52.93
57948;BME280;43754;56.992;24.292;2023-04-20T05:16:40;102802.03;;;10.51;52.23
57948;BME280;43754;56.992;24.292;2023-04-20T05:19:12;102799.63;;;10.89;51.96
57948;BME280;43754;56.992;24.292;2023-04-20T05:21:44;102811.38;;;10.98;51.67
57948;BME280;43754;56.992;24.292;2023-04-20T05:24:16;102802.75;;;11.25;50.78
57948;BME280;43754;56.992;24.292;2023-04-20T05:26:50;102801.56;;;11.48;50.25
57948;BME280;43754;56.992;24.292;2023-04-20T05:29:23;102801.03;;;11.84;48.94
57948;BME280;43754;56.992;24.292;2023-04-20T05:31:55;102793.72;;;12.25;49.46
57948;BME280;43754;56.992;24.292;2023-04-20T05:34:27;102809.44;;;12.49;49.37
57948;BME280;43754;56.992;24.292;2023-04-20T05:36:59;102798.97;;;12.55;47.32
57948;BME280;43754;56.992;24.292;2023-04-20T05:39:31;102801.50;;;12.28;46.81
57948;BME280;43754;56.992;24.292;2023-04-20T05:42:03;102794.31;;;12.19;47.43
57948;BME280;43754;56.992;24.292;2023-04-20T05:44:36;102799.25;;;12.33;47.02
57948;BME280;43754;56.992;24.292;2023-04-20T05:47:10;102790.03;;;12.45;46.32
57948;BME280;43754;56.992;24.292;2023-04-20T05:49:42;102792.44;;;12.77;45.94
57948;BME280;43754;56.992;24.292;2023-04-20T05:52:16;102794.44;;;13.31;45.91
57948;BME280;43754;56.992;24.292;2023-04-20T05:54:48;102798.03;;;13.49;46.34
57948;BME280;43754;56.992;24.292;2023-04-20T05:57:20;102799.97;;;13.84;45.71
57948;BME280;43754;56.992;24.292;2023-04-20T05:59:55;102798.44;;;13.99;43.87
57948;BME280;43754;56.992;24.292;2023-04-20T06:02:27;102791.31;;;14.08;44.20
57948;BME280;43754;56.992;24.292;2023-04-20T06:04:59;102802.31;;;13.69;43.27
57948;BME280;43754;56.992;24.292;2023-04-20T06:07:32;102800.69;;;13.59;43.18
57948;BME280;43754;56.992;24.292;2023-04-20T06:10:05;102808.75;;;13.31;42.96
57948;BME280;43754;56.992;24.292;2023-04-20T06:12:37;102804.13;;;13.51;43.20
57948;BME280;43754;56.992;24.292;2023-04-20T06:15:10;102797.53;;;13.63;44.03
57948;BME280;43754;56.992;24.292;2023-04-20T06:17:42;102798.94;;;13.67;43.61
57948;BME280;43754;56.992;24.292;2023-04-20T06:20:15;102792.69;;;14.12;44.16
57948;BME280;43754;56.992;24.292;2023-04-20T06:22:47;102794.19;;;14.59;42.80
57948;BME280;43754;56.992;24.292;2023-04-20T06:25:19;102798.25;;;14.63;41.77
57948;BME280;43754;56.992;24.292;2023-04-20T06:27:51;102794.69;;;14.81;43.77
57948;BME280;43754;56.992;24.292;2023-04-20T06:30:25;102792.13;;;14.79;42.42
57948;BME280;43754;56.992;24.292;2023-04-20T06:32:57;102802.19;;;14.95;41.83
57948;BME280;43754;56.992;24.292;2023-04-20T06:35:29;102796.91;;;14.85;42.06
57948;BME280;43754;56.992;24.292;2023-04-20T06:38:01;102806.97;;;15.01;41.00
57948;BME280;43754;56.992;24.292;2023-04-20T06:40:33;102808.69;;;15.02;41.40
57948;BME280;43754;56.992;24.292;2023-04-20T06:43:05;102802.19;;;14.95;41.27
57948;BME280;43754;56.992;24.292;2023-04-20T06:45:38;102798.50;;;14.96;41.25
57948;BME280;43754;56.992;24.292;2023-04-20T06:48:10;102797.28;;;15.16;41.29
57948;BME280;43754;56.992;24.292;2023-04-20T06:51:01;102796.03;;;15.36;41.37
57948;BME280;43754;56.992;24.292;2023-04-20T06:53:33;102800.41;;;15.63;41.69
57948;BME280;43754;56.992;24.292;2023-04-20T06:56:06;102798.06;;;15.68;40.12
57948;BME280;43754;56.992;24.292;2023-04-20T06:58:38;102799.59;;;15.71;40.26
57948;BME280;43754;56.992;24.292;2023-04-20T07:01:12;102799.63;;;15.79;39.67
57948;BME280;43754;56.992;24.292;2023-04-20T07:03:44;102789.53;;;15.97;38.89
57948;BME280;43754;56.992;24.292;2023-04-20T07:06:18;102793.94;;;15.90;36.75
57948;BME280;43754;56.992;24.292;2023-04-20T07:08:50;102792.59;;;16.02;37.58
57948;BME280;43754;56.992;24.292;2023-04-20T07:11:22;102794.31;;;16.03;37.85
57948;BME280;43754;56.992;24.292;2023-04-20T07:13:54;102794.84;;;16.23;38.28
57948;BME280;43754;56.992;24.292;2023-04-20T07:16:28;102784.66;;;16.17;35.41
57948;BME280;43754;56.992;24.292;2023-04-20T07:19:00;102785.88;;;16.30;35.69
57948;BME280;43754;56.992;24.292;2023-04-20T07:21:32;102784.38;;;16.36;37.10
57948;BME280;43754;56.992;24.292;2023-04-20T07:24:04;102787.44;;;16.57;35.23
57948;BME280;43754;56.992;24.292;2023-04-20T07:26:36;102785.72;;;16.80;34.81
57948;BME280;43754;56.992;24.292;2023-04-20T07:29:08;102790.25;;;17.04;35.63
57948;BME280;43754;56.992;24.292;2023-04-20T07:31:42;102785.50;;;17.14;34.15
57948;BME280;43754;56.992;24.292;2023-04-20T07:34:14;102786.13;;;17.24;33.40
57948;BME280;43754;56.992;24.292;2023-04-20T07:36:46;102783.63;;;17.23;33.63
57948;BME280;43754;56.992;24.292;2023-04-20T07:39:18;102782.47;;;17.09;32.26
57948;BME280;43754;56.992;24.292;2023-04-20T07:41:50;102781.81;;;17.07;32.59
57948;BME280;43754;56.992;24.292;2023-04-20T07:44:22;102782.63;;;17.08;35.25
57948;BME280;43754;56.992;24.292;2023-04-20T07:46:55;102783.00;;;16.96;36.91
57948;BME280;43754;56.992;24.292;2023-04-20T07:49:28;102785.81;;;17.27;33.85
57948;BME280;43754;56.992;24.292;2023-04-20T07:52:00;102783.88;;;17.44;34.20
57948;BME280;43754;56.992;24.292;2023-04-20T07:54:47;102776.31;;;17.70;32.62
57948;BME280;43754;56.992;24.292;2023-04-20T07:57:19;102776.56;;;17.61;30.66
57948;BME280;43754;56.992;24.292;2023-04-20T07:59:51;102781.38;;;17.34;31.33
57948;BME280;43754;56.992;24.292;2023-04-20T08:02:25;102788.47;;;17.43;29.94
57948;BME280;43754;56.992;24.292;2023-04-20T08:04:57;102783.69;;;17.45;31.50
57948;BME280;43754;56.992;24.292;2023-04-20T08:07:30;102778.22;;;17.70;31.40
57948;BME280;43754;56.992;24.292;2023-04-20T08:10:02;102771.25;;;17.98;29.68
57948;BME280;43754;56.992;24.292;2023-04-20T08:12:35;102771.56;;;18.26;31.32
57948;BME280;43754;56.992;24.292;2023-04-20T08:15:08;102765.13;;;18.27;30.64
57948;BME280;43754;56.992;24.292;2023-04-20T08:17:42;102759.19;;;18.46;30.11
57948;BME280;43754;56.992;24.292;2023-04-20T08:20:14;102772.88;;;18.75;29.33
57948;BME280;43754;56.992;24.292;2023-04-20T08:22:46;102771.47;;;18.65;30.27
57948;BME280;43754;56.992;24.292;2023-04-20T08:25:18;102763.31;;;18.65;29.48
57948;BME280;43754;56.992;24.292;2023-04-20T08:27:50;102764.25;;;18.72;30.15
57948;BME280;43754;56.992;24.292;2023-04-20T08:30:22;102771.97;;;18.98;29.11
57948;BME280;43754;56.992;24.292;2023-04-20T08:32:56;102759.38;;;18.45;28.36
57948;BME280;43754;56.992;24.292;2023-04-20T08:35:28;102762.94;;;18.22;28.59
57948;BME280;43754;56.992;24.292;2023-04-20T08:38:01;102757.78;;;18.50;29.17
57948;BME280;43754;56.992;24.292;2023-04-20T08:40:35;102767.88;;;18.64;27.67
57948;BME280;43754;56.992;24.292;2023-04-20T08:43:07;102768.75;;;18.65;27.97
57948;BME280;43754;56.992;24.292;2023-04-20T08:45:40;102760.47;;;18.58;27.55
57948;BME280;43754;56.992;24.292;2023-04-20T08:48:18;102778.66;;;18.50;27.17
57948;BME280;43754;56.992;24.292;2023-04-20T08:50:52;102764.63;;;18.69;30.22
57948;BME280;43754;56.992;24.292;2023-04-20T08:53:24;102757.09;;;18.56;27.78
57948;BME280;43754;56.992;24.292;2023-04-20T08:55:56;102760.59;;;18.19;28.02
57948;BME280;43754;56.992;24.292;2023-04-20T08:58:30;102756.00;;;18.43;28.64
57948;BME280;43754;56.992;24.292;2023-04-20T09:01:03;102758.56;;;18.81;29.63
57948;BME280;43754;56.992;24.292;2023-04-20T09:03:37;102757.16;;;18.86;28.55
57948;BME280;43754;56.992;24.292;2023-04-20T09:06:14;102746.28;;;18.86;26.81
57948;BME280;43754;56.992;24.292;2023-04-20T09:08:47;102752.56;;;18.49;27.71
57948;BME280;43754;56.992;24.292;2023-04-20T09:11:22;102748.09;;;18.56;28.54
57948;BME280;43754;56.992;24.292;2023-04-20T09:13:59;102749.09;;;18.77;28.80
57948;BME280;43754;56.992;24.292;2023-04-20T09:16:32;102748.97;;;18.56;28.22
57948;BME280;43754;56.992;24.292;2023-04-20T09:19:09;102751.75;;;18.63;28.87
57948;BME280;43754;56.992;24.292;2023-04-20T09:21:47;102759.28;;;18.75;28.76
57948;BME280;43754;56.992;24.292;2023-04-20T09:24:20;102749.38;;;18.97;29.75
57948;BME280;43754;56.992;24.292;2023-04-20T09:26:52;102740.88;;;19.15;27.76
57948;BME280;43754;56.992;24.292;2023-04-20T09:29:24;102748.91;;;19.08;27.83
57948;BME280;43754;56.992;24.292;2023-04-20T09:31:56;102741.69;;;18.86;29.06
57948;BME280;43754;56.992;24.292;2023-04-20T09:34:29;102743.47;;;19.08;28.71
57948;BME280;43754;56.992;24.292;2023-04-20T09:37:02;102740.09;;;19.21;29.54
57948;BME280;43754;56.992;24.292;2023-04-20T09:39:42;102735.63;;;19.28;27.94
57948;BME280;43754;56.992;24.292;2023-04-20T09:42:16;102733.94;;;18.98;28.35
57948;BME280;43754;56.992;24.292;2023-04-20T09:44:49;102736.91;;;18.73;28.06
57948;BME280;43754;56.992;24.292;2023-04-20T09:47:22;102739.97;;;18.56;27.17
57948;BME280;43754;56.992;24.292;2023-04-20T09:49:58;102733.81;;;18.62;28.43
57948;BME280;43754;56.992;24.292;2023-04-20T09:52:50;102738.50;;;18.97;28.81
57948;BME280;43754;56.992;24.292;2023-04-20T09:55:23;102732.78;;;19.21;29.79
57948;BME280;43754;56.992;24.292;2023-04-20T09:57:57;102723.00;;;19.42;27.18
57948;BME280;43754;56.992;24.292;2023-04-20T10:00:29;102721.78;;;19.59;27.33
57948;BME280;43754;56.992;24.292;2023-04-20T10:03:01;102725.19;;;19.61;29.57
57948;BME280;43754;56.992;24.292;2023-04-20T10:05:36;102720.22;;;19.50;27.18
57948;BME280;43754;56.992;24.292;2023-04-20T10:08:10;102721.13;;;19.42;26.05
57948;BME280;43754;56.992;24.292;2023-04-20T10:10:43;102713.75;;;19.21;27.78
57948;BME280;43754;56.992;24.292;2023-04-20T10:13:16;102702.88;;;19.51;29.37
57948;BME280;43754;56.992;24.292;2023-04-20T10:15:52;102705.59;;;19.87;26.63
57948;BME280;43754;56.992;24.292;2023-04-20T10:18:24;102707.03;;;19.68;26.31
57948;BME280;43754;56.992;24.292;2023-04-20T10:21:05;102711.13;;;19.57;25.34
57948;BME280;43754;56.992;24.292;2023-04-20T10:23:47;102712.91;;;19.86;30.03
57948;BME280;43754;56.992;24.292;2023-04-20T10:26:19;102697.88;;;19.90;25.54
57948;BME280;43754;56.992;24.292;2023-04-20T10:28:51;102695.28;;;19.82;26.15
57948;BME280;43754;56.992;24.292;2023-04-20T10:31:34;102694.72;;;19.87;26.19
57948;BME280;43754;56.992;24.292;2023-04-20T10:34:07;102697.19;;;19.67;27.46
57948;BME280;43754;56.992;24.292;2023-04-20T10:36:40;102685.44;;;19.30;25.67
57948;BME280;43754;56.992;24.292;2023-04-20T10:39:14;102685.69;;;19.50;26.97
57948;BME280;43754;56.992;24.292;2023-04-20T10:41:51;102688.63;;;19.49;26.18
57948;BME280;43754;56.992;24.292;2023-04-20T10:44:24;102676.50;;;19.51;27.59
57948;BME280;43754;56.992;24.292;2023-04-20T10:46:56;102675.97;;;19.77;28.48
57948;BME280;43754;56.992;24.292;2023-04-20T10:49:28;102671.84;;;19.66;25.48
57948;BME280;43754;56.992;24.292;2023-04-20T10:52:04;102674.63;;;19.52;27.16
57948;BME280;43754;56.992;24.292;2023-04-20T10:54:36;102671.97;;;19.58;27.93
57948;BME280;43754;56.992;24.292;2023-04-20T10:57:15;102661.06;;;19.73;29.64
57948;BME280;43754;56.992;24.292;2023-04-20T10:59:47;102667.97;;;19.75;26.55
57948;BME280;43754;56.992;24.292;2023-04-20T11:02:19;102667.91;;;19.48;25.48
57948;BME280;43754;56.992;24.292;2023-04-20T11:04:51;102665.16;;;19.33;26.42
57948;BME280;43754;56.992;24.292;2023-04-20T11:07:25;102667.63;;;19.28;29.13
57948;BME280;43754;56.992;24.292;2023-04-20T11:09:57;102663.06;;;19.64;28.70
57948;BME280;43754;56.992;24.292;2023-04-20T11:12:37;102669.63;;;19.70;27.57
57948;BME280;43754;56.992;24.292;2023-04-20T11:15:10;102660.69;;;19.25;29.38
57948;BME280;43754;56.992;24.292;2023-04-20T11:17:42;102668.69;;;19.12;30.13
57948;BME280;43754;56.992;24.292;2023-04-20T11:20:14;102671.94;;;19.22;30.03
57948;BME280;43754;56.992;24.292;2023-04-20T11:22:56;102665.56;;;19.30;29.45
57948;BME280;43754;56.992;24.292;2023-04-20T11:25:31;102675.63;;;19.15;30.68
57948;BME280;43754;56.992;24.292;2023-04-20T11:28:06;102670.03;;;18.50;34.85
57948;BME280;43754;56.992;24.292;2023-04-20T11:30:41;102667.84;;;18.68;33.64
57948;BME280;43754;56.992;24.292;2023-04-20T11:33:13;102665.81;;;18.70;29.88
57948;BME280;43754;56.992;24.292;2023-04-20T11:35:46;102670.03;;;18.50;32.36
57948;BME280;43754;56.992;24.292;2023-04-20T11:38:27;102666.94;;;18.61;30.37
57948;BME280;43754;56.992;24.292;2023-04-20T11:40:59;102660.09;;;18.27;29.29
57948;BME280;43754;56.992;24.292;2023-04-20T11:43:35;102671.38;;;18.16;32.95
57948;BME280;43754;56.992;24.292;2023-04-20T11:46:12;102661.03;;;18.34;35.59
57948;BME280;43754;56.992;24.292;2023-04-20T11:48:45;102655.91;;;18.02;30.84
57948;BME280;43754;56.992;24.292;2023-04-20T11:51:18;102648.91;;;17.85;30.25
57948;BME280;43754;56.992;24.292;2023-04-20T11:53:51;102645.13;;;17.71;30.99
57948;BME280;43754;56.992;24.292;2023-04-20T11:56:23;102647.97;;;17.78;33.99
57948;BME280;43754;56.992;24.292;2023-04-20T11:58:55;102648.88;;;18.08;32.51
57948;BME280;43754;56.992;24.292;2023-04-20T12:01:28;102634.13;;;18.10;30.73
57948;BME280;43754;56.992;24.292;2023-04-20T12:04:00;102636.38;;;17.84;30.77
57948;BME280;43754;56.992;24.292;2023-04-20T12:06:33;102651.06;;;17.67;32.13
57948;BME280;43754;56.992;24.292;2023-04-20T12:09:06;102649.28;;;17.82;36.08
57948;BME280;43754;56.992;24.292;2023-04-20T12:11:38;102642.88;;;17.98;31.88
57948;BME280;43754;56.992;24.292;2023-04-20T12:14:10;102639.75;;;17.86;32.78
57948;BME280;43754;56.992;24.292;2023-04-20T12:16:42;102645.59;;;17.98;30.96
57948;BME280;43754;56.992;24.292;2023-04-20T12:19:14;102638.88;;;18.08;32.18
57948;BME280;43754;56.992;24.292;2023-04-20T12:21:47;102631.88;;;18.14;35.13
57948;BME280;43754;56.992;24.292;2023-04-20T12:24:21;102628.00;;;17.93;34.14
57948;BME280;43754;56.992;24.292;2023-04-20T12:26:53;102625.81;;;17.89;30.34
57948;BME280;43754;56.992;24.292;2023-04-20T12:29:25;102626.44;;;17.76;31.17
57948;BME280;43754;56.992;24.292;2023-04-20T12:31:57;102627.88;;;17.33;30.83
57948;BME280;43754;56.992;24.292;2023-04-20T12:34:29;102625.97;;;17.73;31.52
57948;BME280;43754;56.992;24.292;2023-04-20T12:37:01;102639.41;;;17.35;30.51
57948;BME280;43754;56.992;24.292;2023-04-20T12:39:34;102622.41;;;17.41;32.14
57948;BME280;43754;56.992;24.292;2023-04-20T12:42:06;102615.28;;;17.71;33.11
57948;BME280;43754;56.992;24.292;2023-04-20T12:44:38;102606.53;;;17.84;31.95
57948;BME280;43754;56.992;24.292;2023-04-20T12:47:11;102601.91;;;17.70;29.98
57948;BME280;43754;56.992;24.292;2023-04-20T12:49:44;102596.66;;;17.68;30.18
57948;BME280;43754;56.992;24.292;2023-04-20T12:52:16;102603.97;;;17.68;30.01
57948;BME280;43754;56.992;24.292;2023-04-20T12:54:50;102597.59;;;17.53;29.92
57948;BME280;43754;56.992;24.292;2023-04-20T12:57:22;102596.41;;;17.24;30.95
57948;BME280;43754;56.992;24.292;2023-04-20T12:59:54;102594.34;;;17.57;30.72
57948;BME280;43754;56.992;24.292;2023-04-20T13:02:28;102595.03;;;17.59;29.86
57948;BME280;43754;56.992;24.292;2023-04-20T13:05:00;102589.34;;;17.46;31.19
57948;BME280;43754;56.992;24.292;2023-04-20T13:07:32;102588.75;;;17.36;29.18
57948;BME280;43754;56.992;24.292;2023-04-20T13:10:07;102581.94;;;17.63;33.27
57948;BME280;43754;56.992;24.292;2023-04-20T13:12:39;102587.91;;;17.58;29.42
57948;BME280;43754;56.992;24.292;2023-04-20T13:15:11;102581.72;;;17.19;28.96